Time;durP1;ratioP1;P1;durP2;ratioP2;P2;SDS_P1;SDS_P2;PMS_P1;PMS_P2;Temp;Humidity;BMP_temperature;BMP_pressure;BME280_temperature;BME280_humidity;BME280_pressure;Samples;Min_cycle;Max_cycle;Signal;HPM_P1;HPM_P2
2020/12/08 00:02:14;;;;;;;23.80;7.45;;;-1.50;54.80;;;;;;5053489;28;20468;-72
2020/12/08 00:04:41;;;;;;;13.65;7.05;;;-1.50;54.80;;;;;;5053285;28;20032;-70
2020/12/08 00:07:08;;;;;;;18.55;7.13;;;-1.50;55.00;;;;;;5053046;28;20025;-70
2020/12/08 00:09:33;;;;;;;20.95;8.00;;;-1.40;54.90;;;;;;5051920;28;20064;-70
2020/12/08 00:11:59;;;;;;;15.82;6.80;;;-1.40;55.00;;;;;;5052944;28;20021;-69
2020/12/08 00:14:25;;;;;;;14.90;6.70;;;-1.40;54.80;;;;;;5054066;28;20096;-69
2020/12/08 00:16:51;;;;;;;12.40;6.28;;;-1.40;54.80;;;;;;5057384;28;20028;-69
2020/12/08 00:19:16;;;;;;;17.40;6.47;;;-1.50;54.80;;;;;;5057143;28;20024;-69
2020/12/08 00:21:43;;;;;;;16.40;6.68;;;-1.50;54.80;;;;;;5057705;28;20533;-69
2020/12/08 00:24:09;;;;;;;12.25;6.18;;;-1.50;54.90;;;;;;5056375;28;20025;-69
2020/12/08 00:26:37;;;;;;;13.55;6.07;;;-1.50;55.00;;;;;;5057036;28;20342;-70
2020/12/08 00:29:04;;;;;;;14.20;6.78;;;-1.50;55.00;;;;;;5056895;28;20017;-69
2020/12/08 00:31:30;;;;;;;12.57;6.07;;;-1.50;55.00;;;;;;5057218;28;20025;-69
2020/12/08 00:33:56;;;;;;;14.90;6.50;;;-1.50;55.10;;;;;;5055653;28;20506;-71
2020/12/08 00:36:23;;;;;;;16.88;6.93;;;-1.50;55.10;;;;;;5056795;28;20025;-69
2020/12/08 00:38:48;;;;;;;18.88;7.25;;;-1.50;55.10;;;;;;5056813;28;20025;-69
2020/12/08 00:41:18;;;;;;;18.33;7.55;;;-1.50;55.10;;;;;;5056501;28;20039;-69
2020/12/08 00:43:45;;;;;;;13.88;6.57;;;-1.50;55.20;;;;;;5056736;28;20021;-70
2020/12/08 00:46:18;;;;;;;33.92;7.05;;;-1.50;55.20;;;;;;5056378;28;20029;-70
2020/12/08 00:48:45;;;;;;;17.15;6.13;;;-1.50;55.20;;;;;;5056397;28;20020;-69
2020/12/08 00:51:11;;;;;;;21.30;6.55;;;-1.50;55.10;;;;;;5057110;28;20025;-69
2020/12/08 00:53:37;;;;;;;26.38;6.65;;;-1.50;55.10;;;;;;5056299;28;20515;-70
2020/12/08 00:56:11;;;;;;;13.52;6.05;;;-1.50;55.20;;;;;;5056599;28;20056;-69
2020/12/08 00:58:37;;;;;;;16.20;7.10;;;-1.50;55.20;;;;;;5056884;28;20107;-69
2020/12/08 01:01:04;;;;;;;14.45;6.47;;;-1.50;55.20;;;;;;5056122;28;20120;-70
2020/12/08 01:03:32;;;;;;;14.23;6.88;;;-1.60;55.30;;;;;;5056072;28;20021;-69
2020/12/08 01:05:57;;;;;;;15.30;6.97;;;-1.60;55.40;;;;;;5056573;28;20029;-70
2020/12/08 01:08:23;;;;;;;15.85;7.53;;;-1.60;55.40;;;;;;5056900;28;20024;-70
2020/12/08 01:10:49;;;;;;;17.08;6.95;;;-1.50;55.50;;;;;;5055797;28;20041;-69
2020/12/08 01:13:14;;;;;;;15.18;6.13;;;-1.50;55.60;;;;;;5056652;28;20118;-70
2020/12/08 01:15:40;;;;;;;18.48;6.93;;;-1.50;55.50;;;;;;5056106;28;20020;-69
2020/12/08 01:18:06;;;;;;;17.08;7.15;;;-1.40;55.60;;;;;;5056010;28;20025;-70
2020/12/08 01:20:31;;;;;;;17.63;7.22;;;-1.40;55.60;;;;;;5056231;28;20347;-70
2020/12/08 01:22:57;;;;;;;15.73;7.28;;;-1.40;55.80;;;;;;5056307;28;20025;-70
2020/12/08 01:25:23;;;;;;;14.73;7.20;;;-1.40;55.80;;;;;;5055863;28;20028;-70
2020/12/08 01:27:48;;;;;;;19.08;9.23;;;-1.40;55.80;;;;;;5055319;28;20036;-70
2020/12/08 01:30:14;;;;;;;16.30;7.32;;;-1.50;55.90;;;;;;5055539;28;20025;-70
2020/12/08 01:32:40;;;;;;;14.43;7.18;;;-1.50;56.10;;;;;;5055147;28;20017;-70
2020/12/08 01:35:05;;;;;;;13.48;7.15;;;-1.50;56.30;;;;;;5055730;28;20487;-71
2020/12/08 01:37:31;;;;;;;13.48;7.22;;;-1.40;56.30;;;;;;5055007;28;20437;-70
2020/12/08 01:39:57;;;;;;;18.77;7.10;;;-1.40;56.30;;;;;;5055641;28;20094;-70
2020/12/08 01:42:22;;;;;;;17.05;7.20;;;-1.40;56.10;;;;;;5055334;28;20048;-70
2020/12/08 01:44:51;;;;;;;14.52;7.03;;;-1.50;56.30;;;;;;5055603;28;20439;-70
2020/12/08 01:47:18;;;;;;;17.77;8.10;;;-1.50;57.30;;;;;;5055247;28;20024;-70
2020/12/08 01:49:48;;;;;;;24.42;7.70;;;-1.50;56.80;;;;;;5055993;28;20025;-69
2020/12/08 01:52:15;;;;;;;14.73;7.35;;;-1.40;56.90;;;;;;5055399;28;20063;-70
2020/12/08 01:54:44;;;;;;;13.75;7.68;;;-1.40;56.90;;;;;;5055683;28;20021;-69
2020/12/08 01:57:10;;;;;;;16.95;7.68;;;-1.40;56.80;;;;;;5054982;28;20060;-69
2020/12/08 01:59:36;;;;;;;17.80;7.95;;;-1.40;56.70;;;;;;5055624;28;20056;-70
2020/12/08 02:02:03;;;;;;;17.65;7.43;;;-1.40;56.90;;;;;;5053933;28;20021;-69
2020/12/08 02:04:30;;;;;;;20.27;8.15;;;-1.40;56.90;;;;;;5055244;28;20147;-69
2020/12/08 02:06:57;;;;;;;17.38;7.13;;;-1.40;56.90;;;;;;5055145;28;20067;-69
2020/12/08 02:09:22;;;;;;;17.35;7.68;;;-1.40;57.10;;;;;;5055100;28;20065;-69
2020/12/08 02:11:49;;;;;;;18.75;7.15;;;-1.40;57.00;;;;;;5054887;28;20369;-69
2020/12/08 02:14:14;;;;;;;16.08;7.30;;;-1.40;57.20;;;;;;5054749;28;20021;-70
2020/12/08 02:16:40;;;;;;;15.55;7.50;;;-1.40;57.20;;;;;;5054902;28;20032;-69
2020/12/08 02:19:06;;;;;;;17.08;7.45;;;-1.40;57.20;;;;;;5054961;28;20107;-69
2020/12/08 02:21:33;;;;;;;18.77;8.52;;;-1.40;57.20;;;;;;5054628;28;20021;-69
2020/12/08 02:23:59;;;;;;;17.50;7.75;;;-1.40;57.10;;;;;;5055300;28;20029;-70
2020/12/08 02:26:26;;;;;;;13.27;7.00;;;-1.40;57.10;;;;;;5053640;28;20087;-69
2020/12/08 02:28:53;;;;;;;19.50;8.18;;;-1.40;57.10;;;;;;5054744;28;20021;-70
2020/12/08 02:31:19;;;;;;;18.27;7.38;;;-1.40;57.00;;;;;;5054666;28;20445;-69
2020/12/08 02:33:44;;;;;;;17.58;7.88;;;-1.30;57.10;;;;;;5053470;28;20032;-70
2020/12/08 02:36:11;;;;;;;14.27;7.25;;;-1.30;57.10;;;;;;5054479;28;20373;-70
2020/12/08 02:38:36;;;;;;;17.17;6.88;;;-1.30;57.20;;;;;;5053689;28;20028;-70
2020/12/08 02:41:04;;;;;;;17.48;7.43;;;-1.30;57.00;;;;;;5052943;28;20499;-69
2020/12/08 02:43:29;;;;;;;14.90;7.55;;;-1.30;57.10;;;;;;5054763;28;20013;-69
2020/12/08 02:45:57;;;;;;;12.13;6.55;;;-1.30;57.00;;;;;;5054689;28;20040;-70
2020/12/08 02:48:23;;;;;;;16.55;7.28;;;-1.30;57.10;;;;;;5054419;28;20052;-69
2020/12/08 02:50:48;;;;;;;15.70;7.05;;;-1.30;57.00;;;;;;5054625;28;20053;-70
2020/12/08 02:53:14;;;;;;;12.45;6.63;;;-1.30;57.00;;;;;;5054507;28;20017;-70
2020/12/08 02:55:40;;;;;;;19.00;7.15;;;-1.30;57.00;;;;;;5054191;28;20025;-69
2020/12/08 02:58:05;;;;;;;16.83;7.13;;;-1.30;57.00;;;;;;5054196;28;20025;-70
2020/12/08 03:00:31;;;;;;;15.15;8.38;;;-1.40;57.00;;;;;;5053870;28;20024;-69
2020/12/08 03:02:56;;;;;;;15.80;7.10;;;-1.40;57.10;;;;;;5054133;28;20083;-70
2020/12/08 03:05:22;;;;;;;19.40;8.02;;;-1.30;57.20;;;;;;5054571;28;20029;-70
2020/12/08 03:07:48;;;;;;;13.70;7.20;;;-1.30;57.10;;;;;;5054270;28;20130;-69
2020/12/08 03:10:14;;;;;;;15.73;8.25;;;-1.30;57.00;;;;;;5054137;28;20377;-70
2020/12/08 03:12:40;;;;;;;17.23;8.20;;;-1.30;57.00;;;;;;5053669;28;20483;-69
2020/12/08 03:15:07;;;;;;;19.17;8.60;;;-1.30;56.80;;;;;;5053849;28;20091;-71
2020/12/08 03:17:34;;;;;;;15.27;6.82;;;-1.40;56.90;;;;;;5053830;28;20067;-69
2020/12/08 03:20:00;;;;;;;20.88;6.93;;;-1.40;56.90;;;;;;5052754;28;20101;-69
2020/12/08 03:22:26;;;;;;;16.27;7.82;;;-1.40;57.00;;;;;;5053833;28;20056;-70
2020/12/08 03:24:51;;;;;;;16.10;8.23;;;-1.40;57.00;;;;;;5053552;28;20075;-69
2020/12/08 03:27:18;;;;;;;17.23;7.93;;;-1.40;57.00;;;;;;5054020;28;20075;-68
2020/12/08 03:29:44;;;;;;;14.82;7.15;;;-1.40;57.20;;;;;;5053741;28;20143;-69
2020/12/08 03:32:10;;;;;;;20.10;7.78;;;-1.40;57.10;;;;;;5052495;28;20029;-70
2020/12/08 03:34:36;;;;;;;16.77;7.93;;;-1.40;57.20;;;;;;5053703;28;20066;-70
2020/12/08 03:37:02;;;;;;;16.52;7.20;;;-1.40;57.20;;;;;;5053657;28;20082;-70
2020/12/08 03:39:28;;;;;;;17.98;7.70;;;-1.40;57.20;;;;;;5053566;28;20017;-70
2020/12/08 03:41:59;;;;;;;18.50;8.20;;;-1.40;57.10;;;;;;5053318;28;20039;-69
2020/12/08 03:44:28;;;;;;;15.93;7.95;;;-1.40;57.30;;;;;;5053483;28;20021;-69
2020/12/08 03:46:58;;;;;;;18.02;7.75;;;-1.30;57.40;;;;;;5053420;28;20029;-71
2020/12/08 03:49:26;;;;;;;18.83;7.90;;;-1.30;57.40;;;;;;5051729;28;20083;-70
2020/12/08 03:51:53;;;;;;;18.38;7.63;;;-1.40;57.30;;;;;;5053668;28;20020;-70
2020/12/08 03:54:19;;;;;;;19.55;8.68;;;-1.50;57.40;;;;;;5053451;28;20033;-70
2020/12/08 03:56:45;;;;;;;19.23;8.50;;;-1.60;57.70;;;;;;5053359;28;20021;-69
2020/12/08 03:59:16;;;;;;;22.50;7.90;;;-1.60;58.10;;;;;;5053221;28;20029;-69
2020/12/08 04:01:43;;;;;;;16.27;7.85;;;-1.60;58.10;;;;;;5053338;28;20330;-69
2020/12/08 04:04:09;;;;;;;18.45;8.32;;;-1.70;58.20;;;;;;5052892;28;20045;-70
2020/12/08 04:06:35;;;;;;;26.83;10.40;;;-1.80;58.60;;;;;;5053460;28;20056;-68
2020/12/08 04:09:00;;;;;;;20.25;9.00;;;-1.80;58.80;;;;;;5053133;28;20052;-70
2020/12/08 04:11:26;;;;;;;19.88;8.55;;;-1.90;58.90;;;;;;5051781;28;20083;-70
2020/12/08 04:13:52;;;;;;;19.02;9.27;;;-1.80;59.50;;;;;;5051901;28;20117;-69
2020/12/08 04:16:17;;;;;;;19.80;9.63;;;-1.80;59.60;;;;;;5051873;28;20033;-69
2020/12/08 04:18:43;;;;;;;20.42;9.27;;;-1.70;59.60;;;;;;5053482;28;20064;-70
2020/12/08 04:21:09;;;;;;;20.45;8.82;;;-1.70;59.60;;;;;;5052848;28;20048;-69
2020/12/08 04:23:34;;;;;;;22.40;8.57;;;-1.60;59.50;;;;;;5052783;28;20033;-70
2020/12/08 04:26:00;;;;;;;19.05;8.45;;;-1.60;59.40;;;;;;5051725;28;20025;-69
2020/12/08 04:28:27;;;;;;;16.88;8.05;;;-1.70;59.50;;;;;;5052684;28;20025;-69
2020/12/08 04:30:53;;;;;;;21.30;8.82;;;-1.70;59.50;;;;;;5053103;28;20021;-70
2020/12/08 04:33:18;;;;;;;29.58;9.70;;;-1.80;59.40;;;;;;5052903;28;20028;-70
2020/12/08 04:35:44;;;;;;;18.67;7.88;;;-1.80;59.70;;;;;;5053118;28;20361;-70
2020/12/08 04:38:10;;;;;;;22.42;8.88;;;-1.80;59.80;;;;;;5052257;28;20428;-70
2020/12/08 04:40:37;;;;;;;19.02;8.20;;;-1.80;59.80;;;;;;5053218;28;20021;-70
2020/12/08 04:43:06;;;;;;;21.15;8.77;;;-1.80;59.90;;;;;;5051649;28;20025;-70
2020/12/08 04:45:32;;;;;;;20.55;8.27;;;-1.70;59.90;;;;;;5052919;28;20083;-70
2020/12/08 04:48:08;;;;;;;19.95;8.15;;;-1.60;59.70;;;;;;5052269;28;20338;-72
2020/12/08 04:50:34;;;;;;;18.15;8.82;;;-1.60;59.60;;;;;;5052687;28;20032;-70
2020/12/08 04:53:00;;;;;;;21.30;9.23;;;-1.60;59.30;;;;;;5052769;28;20477;-71
2020/12/08 04:55:26;;;;;;;18.60;8.40;;;-1.60;59.40;;;;;;5053115;28;20028;-70
2020/12/08 04:57:53;;;;;;;21.15;8.82;;;-1.50;59.40;;;;;;5052621;28;20025;-69
2020/12/08 05:00:20;;;;;;;20.23;9.25;;;-1.60;59.20;;;;;;5052507;28;20052;-70
2020/12/08 05:02:47;;;;;;;20.60;9.48;;;-1.50;59.20;;;;;;5054390;28;20449;-70
2020/12/08 05:05:17;;;;;;;21.50;8.52;;;-1.50;59.30;;;;;;5056238;28;20025;-71
2020/12/08 05:07:43;;;;;;;16.90;8.25;;;-1.50;59.20;;;;;;5056234;28;20442;-70
2020/12/08 05:10:09;;;;;;;16.15;8.70;;;-1.50;59.20;;;;;;5056251;28;20048;-68
2020/12/08 05:12:35;;;;;;;19.35;8.75;;;-1.40;59.20;;;;;;5056044;28;20025;-70
2020/12/08 05:15:01;;;;;;;19.50;8.38;;;-1.40;59.20;;;;;;5056378;28;20411;-69
2020/12/08 05:17:28;;;;;;;20.88;9.02;;;-1.30;59.20;;;;;;5056085;28;20029;-69
2020/12/08 05:20:10;;;;;;;21.63;8.43;;;-1.30;59.10;;;;;;5055825;28;20029;-70
2020/12/08 05:22:36;;;;;;;24.73;8.75;;;-1.30;59.10;;;;;;5054638;28;20024;-70
2020/12/08 05:25:17;;;;;;;20.42;9.38;;;-1.20;59.10;;;;;;5055904;28;20021;-69
2020/12/08 05:27:44;;;;;;;21.50;9.07;;;-1.20;59.00;;;;;;5054491;28;20020;-69
2020/12/08 05:30:11;;;;;;;25.65;9.98;;;-1.20;58.80;;;;;;5055696;28;20023;-69
2020/12/08 05:32:38;;;;;;;25.27;9.88;;;-1.20;59.00;;;;;;5055775;28;20025;-70
2020/12/08 05:35:06;;;;;;;18.98;9.18;;;-1.20;59.00;;;;;;5054303;28;20031;-70
2020/12/08 05:38:03;;;;;;;24.90;9.75;;;-1.30;59.00;;;;;;5055570;28;20090;-69
2020/12/08 05:40:29;;;;;;;19.27;8.45;;;-1.30;59.30;;;;;;5054916;28;20033;-70
2020/12/08 05:42:56;;;;;;;30.23;12.73;;;-1.30;59.20;;;;;;5055263;28;20029;-70
2020/12/08 05:45:23;;;;;;;21.38;8.93;;;-1.30;59.10;;;;;;5055197;28;20401;-70
2020/12/08 05:47:57;;;;;;;22.77;7.88;;;-1.40;58.90;;;;;;5056293;28;20051;-70
2020/12/08 05:50:25;;;;;;;25.27;9.20;;;-1.40;59.00;;;;;;5054049;28;20025;-72
2020/12/08 05:52:53;;;;;;;23.00;8.90;;;-1.50;59.00;;;;;;5053963;28;20480;-71
2020/12/08 05:55:37;;;;;;;20.00;9.70;;;-1.50;58.90;;;;;;5055534;28;20021;-70
2020/12/08 05:58:07;;;;;;;23.08;9.65;;;-1.60;58.90;;;;;;5053935;28;20024;-70
2020/12/08 06:00:35;;;;;;;22.05;8.45;;;-1.70;58.90;;;;;;5055208;28;20040;-70
2020/12/08 06:03:14;;;;;;;26.60;8.68;;;-1.70;59.20;;;;;;5055464;28;20032;-70
2020/12/08 06:05:43;;;;;;;26.83;10.93;;;-1.70;59.20;;;;;;5055156;28;20029;-71
2020/12/08 06:08:27;;;;;;;27.67;10.32;;;-1.70;59.20;;;;;;5055056;28;20056;-70
2020/12/08 06:10:54;;;;;;;31.40;10.13;;;-1.80;59.30;;;;;;5055067;28;20331;-70
2020/12/08 06:13:31;;;;;;;28.10;9.20;;;-1.70;59.40;;;;;;5053445;28;20523;-70
2020/12/08 06:16:00;;;;;;;25.63;10.52;;;-1.70;60.10;;;;;;5037764;28;20356;-71
2020/12/08 06:18:33;;;;;;;27.65;10.18;;;-1.80;59.30;;;;;;5054580;28;20101;-71
2020/12/08 06:21:02;;;;;;;25.13;10.90;;;-1.80;59.50;;;;;;5055063;28;20013;-70
2020/12/08 06:23:28;;;;;;;24.23;10.00;;;-1.80;59.60;;;;;;5055295;28;20349;-71
2020/12/08 06:26:00;;;;;;;23.88;9.15;;;-1.80;59.70;;;;;;5054723;28;20028;-71
2020/12/08 06:28:26;;;;;;;29.77;9.23;;;-1.70;59.80;;;;;;5053425;28;20035;-71
2020/12/08 06:31:01;;;;;;;24.25;9.20;;;-1.60;59.80;;;;;;5054952;28;20104;-70
2020/12/08 06:33:27;;;;;;;;;;;-1.60;59.90;;;;;;5054938;28;20021;-70
2020/12/08 06:36:01;;;;;;;20.08;8.75;;;-1.50;59.80;;;;;;5054728;28;20352;-71
2020/12/08 06:38:27;;;;;;;32.60;8.43;;;-1.50;59.50;;;;;;5054685;28;20070;-70
2020/12/08 06:40:54;;;;;;;31.92;9.30;;;-1.50;59.60;;;;;;5053095;28;20028;-70
2020/12/08 06:43:20;;;;;;;34.78;9.80;;;-1.40;59.70;;;;;;5054558;28;20025;-71
2020/12/08 06:45:46;;;;;;;24.40;9.25;;;-1.40;59.60;;;;;;5054502;28;20425;-71
2020/12/08 06:48:19;;;;;;;19.92;9.73;;;-1.40;59.60;;;;;;5054644;28;20036;-72
2020/12/08 06:50:46;;;;;;;26.85;8.95;;;-1.40;59.90;;;;;;5053128;28;20021;-71
2020/12/08 06:53:16;;;;;;;23.25;9.20;;;-1.40;59.80;;;;;;5054179;28;20024;-71
2020/12/08 06:55:49;;;;;;;20.42;8.18;;;-1.30;60.00;;;;;;5054101;28;20072;-71
2020/12/08 06:58:15;;;;;;;21.98;8.48;;;-1.30;59.90;;;;;;5053936;28;20029;-71
2020/12/08 07:00:44;;;;;;;17.33;8.50;;;-1.30;59.80;;;;;;5053921;28;20028;-70
2020/12/08 07:03:11;;;;;;;23.20;9.13;;;-1.20;60.00;;;;;;5052912;28;20352;-70
2020/12/08 07:05:37;;;;;;;24.38;9.35;;;-1.20;59.90;;;;;;5052656;28;20065;-70
2020/12/08 07:08:05;;;;;;;22.27;9.20;;;-1.20;60.00;;;;;;5054243;28;20020;-70
2020/12/08 07:10:39;;;;;;;26.50;9.93;;;-1.10;60.10;;;;;;5054394;28;20522;-71
2020/12/08 07:13:16;;;;;;;19.63;9.07;;;-1.00;60.20;;;;;;5053349;28;20115;-70
2020/12/08 07:15:43;;;;;;;23.52;9.95;;;-0.90;60.10;;;;;;5053909;28;20108;-70
2020/12/08 07:18:11;;;;;;;19.30;8.43;;;-0.90;59.90;;;;;;5053215;28;20352;-70
2020/12/08 07:20:39;;;;;;;23.05;9.48;;;-0.90;60.00;;;;;;5053755;28;20064;-68
2020/12/08 07:23:07;;;;;;;26.38;9.68;;;-0.80;60.10;;;;;;5053094;28;20024;-69
2020/12/08 07:25:34;;;;;;;25.35;8.45;;;-0.70;60.00;;;;;;5052612;28;20031;-71
2020/12/08 07:28:00;;;;;;;20.02;9.27;;;-0.70;59.90;;;;;;5053304;28;20142;-70
2020/12/08 07:30:28;;;;;;;24.70;8.63;;;-0.70;59.80;;;;;;5053318;28;20025;-71
2020/12/08 07:32:55;;;;;;;24.63;9.20;;;-0.70;59.80;;;;;;5053618;28;20025;-71
2020/12/08 07:35:22;;;;;;;20.50;8.90;;;-0.60;59.80;;;;;;5053549;28;20461;-71
2020/12/08 07:37:50;;;;;;;26.00;9.77;;;-0.60;59.60;;;;;;5053560;28;20044;-71
2020/12/08 07:40:15;;;;;;;21.65;9.70;;;-0.60;59.80;;;;;;5053509;28;20028;-71
2020/12/08 07:42:49;;;;;;;26.40;10.30;;;-0.50;60.10;;;;;;5053281;28;20021;-69
2020/12/08 07:45:15;;;;;;;20.23;9.02;;;-0.40;60.00;;;;;;5053528;28;20028;-70
2020/12/08 07:47:41;;;;;;;21.95;9.27;;;-0.30;59.80;;;;;;5053679;28;20044;-71
2020/12/08 07:50:07;;;;;;;26.17;10.57;;;-0.20;59.50;;;;;;5053410;28;20456;-69
2020/12/08 07:52:33;;;;;;;29.88;9.48;;;-0.20;59.60;;;;;;5053364;28;20036;-70
2020/12/08 07:54:58;;;;;;;27.90;10.15;;;-0.20;59.70;;;;;;5053529;28;20100;-70
2020/12/08 07:57:24;;;;;;;24.85;9.77;;;0.00;59.90;;;;;;5053699;28;20365;-71
2020/12/08 07:59:52;;;;;;;28.83;9.77;;;0.00;59.60;;;;;;5053285;28;20419;-70
2020/12/08 08:02:17;;;;;;;25.20;9.25;;;0.10;59.50;;;;;;5053147;28;20503;-71
2020/12/08 08:04:43;;;;;;;23.48;9.70;;;0.20;59.50;;;;;;5053189;28;20029;-70
2020/12/08 08:07:09;;;;;;;26.67;9.25;;;0.30;59.20;;;;;;5053200;28;20060;-70
2020/12/08 08:09:38;;;;;;;23.30;10.05;;;0.40;59.00;;;;;;5053216;28;20412;-71
2020/12/08 08:12:04;;;;;;;24.30;8.95;;;0.40;58.80;;;;;;5053449;28;20033;-70
2020/12/08 08:14:29;;;;;;;23.63;9.27;;;0.50;58.70;;;;;;5053186;28;20028;-70
2020/12/08 08:16:55;;;;;;;23.75;8.43;;;0.50;58.50;;;;;;5053202;28;20029;-70
2020/12/08 08:19:21;;;;;;;21.58;9.13;;;0.60;58.30;;;;;;5052255;28;20029;-70
2020/12/08 08:21:47;;;;;;;25.52;9.40;;;0.50;58.20;;;;;;5053379;28;20028;-70
2020/12/08 08:24:14;;;;;;;24.42;9.85;;;0.50;58.00;;;;;;5053041;28;20025;-70
2020/12/08 08:26:40;;;;;;;25.10;9.75;;;0.40;57.90;;;;;;5053345;28;20112;-70
2020/12/08 08:29:08;;;;;;;29.15;10.75;;;0.40;58.10;;;;;;5052635;28;20103;-71
2020/12/08 08:31:34;;;;;;;23.63;9.27;;;0.50;58.50;;;;;;5052147;28;20020;-70
2020/12/08 08:34:02;;;;;;;24.80;9.63;;;0.60;58.30;;;;;;5053245;28;20441;-71
2020/12/08 08:36:28;;;;;;;23.90;9.32;;;0.70;58.90;;;;;;5055055;28;20492;-69
2020/12/08 08:38:54;;;;;;;19.75;9.00;;;0.80;58.30;;;;;;5057355;28;20032;-70
2020/12/08 08:41:20;;;;;;;25.05;9.40;;;0.90;58.10;;;;;;5056950;28;20017;-69
2020/12/08 08:43:46;;;;;;;23.35;9.48;;;1.00;58.50;;;;;;5056547;28;20033;-70
2020/12/08 08:46:13;;;;;;;20.60;9.70;;;1.10;57.10;;;;;;5056820;28;20021;-72
2020/12/08 08:48:38;;;;;;;21.98;9.95;;;0.90;56.70;;;;;;5057086;28;20025;-71
2020/12/08 08:51:04;;;;;;;26.17;9.25;;;0.90;56.80;;;;;;5056990;28;20070;-71
2020/12/08 08:53:31;;;;;;;23.83;10.60;;;0.80;56.80;;;;;;5056421;28;20028;-69
2020/12/08 08:55:57;;;;;;;18.38;9.18;;;0.70;56.60;;;;;;5056714;28;20020;-70
2020/12/08 08:58:22;;;;;;;18.65;8.07;;;0.70;56.70;;;;;;5056321;28;20036;-71
2020/12/08 09:00:48;;;;;;;21.75;9.43;;;0.80;56.90;;;;;;5056347;28;20435;-70
2020/12/08 09:03:14;;;;;;;25.38;9.82;;;0.80;56.70;;;;;;5056592;28;20463;-70
2020/12/08 09:05:39;;;;;;;23.05;10.13;;;0.90;56.50;;;;;;5056454;28;20025;-71
2020/12/08 09:08:05;;;;;;;23.98;9.75;;;0.90;56.20;;;;;;5056933;28;20028;-70
2020/12/08 09:10:31;;;;;;;22.85;9.25;;;1.00;56.10;;;;;;5056282;28;20049;-70
2020/12/08 09:12:57;;;;;;;25.10;8.98;;;1.00;56.00;;;;;;5056430;28;20032;-70
2020/12/08 09:15:24;;;;;;;22.52;9.57;;;0.90;56.00;;;;;;5056349;28;20029;-72
2020/12/08 09:17:50;;;;;;;23.35;9.85;;;0.90;55.90;;;;;;5055631;28;20035;-70
2020/12/08 09:20:16;;;;;;;21.52;9.30;;;0.90;56.00;;;;;;5055856;28;20360;-71
2020/12/08 09:22:42;;;;;;;21.83;9.90;;;0.90;56.00;;;;;;5055499;28;20028;-70
2020/12/08 09:25:08;;;;;;;20.83;9.02;;;1.00;55.80;;;;;;5054082;28;20117;-72
2020/12/08 09:27:34;;;;;;;22.88;10.05;;;1.10;55.80;;;;;;5055376;28;20029;-72
2020/12/08 09:30:00;;;;;;;28.45;10.32;;;1.20;55.90;;;;;;5054896;28;20154;-71
2020/12/08 09:32:29;;;;;;;25.27;10.30;;;1.30;55.70;;;;;;5055113;28;20027;-72
2020/12/08 09:34:55;;;;;;;22.48;9.40;;;1.40;55.50;;;;;;5055918;28;20019;-70
2020/12/08 09:37:21;;;;;;;22.17;9.50;;;1.40;55.10;;;;;;5054034;28;20028;-72
2020/12/08 09:39:46;;;;;;;27.00;10.60;;;1.50;54.90;;;;;;5055466;28;20043;-72
2020/12/08 09:42:12;;;;;;;25.65;9.43;;;1.50;54.80;;;;;;5055681;28;20021;-70
2020/12/08 09:44:38;;;;;;;25.33;10.15;;;1.50;54.70;;;;;;5054718;28;20024;-72
2020/12/08 09:47:03;;;;;;;26.20;10.25;;;1.40;54.50;;;;;;5055058;28;20360;-71
2020/12/08 09:49:29;;;;;;;28.00;9.32;;;1.40;54.60;;;;;;5055369;28;20025;-71
2020/12/08 09:51:55;;;;;;;20.48;9.75;;;1.50;54.50;;;;;;5053374;28;20464;-70
2020/12/08 09:54:21;;;;;;;20.60;9.82;;;1.50;54.30;;;;;;5053237;28;20021;-70
2020/12/08 09:56:47;;;;;;;22.42;10.48;;;1.50;54.30;;;;;;5054045;28;20345;-71
2020/12/08 09:59:13;;;;;;;22.10;10.45;;;1.50;54.30;;;;;;5053917;28;20025;-71
2020/12/08 10:01:39;;;;;;;28.75;11.68;;;1.60;54.30;;;;;;5054771;28;20094;-72
2020/12/08 10:04:06;;;;;;;20.52;9.68;;;1.70;54.40;;;;;;5053277;28;20029;-71
2020/12/08 10:06:31;;;;;;;25.25;11.60;;;1.70;54.00;;;;;;5053690;28;20468;-71
2020/12/08 10:08:57;;;;;;;25.90;10.80;;;1.70;53.80;;;;;;5054776;28;20048;-70
2020/12/08 10:11:24;;;;;;;36.25;10.77;;;1.60;53.70;;;;;;5054026;28;20029;-73
2020/12/08 10:13:50;;;;;;;27.05;11.05;;;1.50;54.00;;;;;;5054978;28;20324;-70
2020/12/08 10:16:20;;;;;;;21.65;9.60;;;1.50;54.00;;;;;;5054670;28;20403;-73
2020/12/08 10:18:47;;;;;;;26.13;10.05;;;1.50;54.10;;;;;;5054681;28;20025;-72
2020/12/08 10:21:13;;;;;;;24.25;9.82;;;1.40;54.10;;;;;;5053469;28;20021;-70
2020/12/08 10:23:38;;;;;;;28.27;10.95;;;1.40;54.20;;;;;;5055293;28;20559;-71
2020/12/08 10:26:04;;;;;;;28.65;9.55;;;1.40;54.20;;;;;;5053361;28;20028;-72
2020/12/08 10:28:30;;;;;;;23.52;10.40;;;1.40;54.10;;;;;;5054360;28;20377;-72
2020/12/08 10:30:55;;;;;;;22.17;10.45;;;1.40;54.20;;;;;;5054891;28;20021;-72
2020/12/08 10:33:21;;;;;;;25.55;11.02;;;1.40;54.40;;;;;;5053281;28;20029;-71
2020/12/08 10:35:47;;;;;;;28.38;10.90;;;1.40;54.30;;;;;;5054437;28;20032;-70
2020/12/08 10:38:14;;;;;;;26.17;10.60;;;1.50;54.60;;;;;;5055126;28;20029;-72
2020/12/08 10:40:39;;;;;;;24.92;10.60;;;1.60;54.80;;;;;;5053838;28;20067;-73
2020/12/08 10:43:05;;;;;;;25.23;11.20;;;1.70;54.50;;;;;;5054709;28;20326;-70
2020/12/08 10:45:31;;;;;;;26.42;11.23;;;1.70;54.20;;;;;;5052875;28;20099;-72
2020/12/08 10:47:56;;;;;;;32.88;13.15;;;1.70;54.10;;;;;;5052976;28;20107;-71
2020/12/08 10:50:22;;;;;;;29.20;10.80;;;1.60;54.20;;;;;;5054471;28;20444;-73
2020/12/08 10:52:48;;;;;;;26.08;10.38;;;1.50;54.30;;;;;;5052633;28;20369;-69
2020/12/08 10:55:14;;;;;;;25.60;11.32;;;1.60;54.50;;;;;;5053945;28;20067;-71
2020/12/08 10:57:40;;;;;;;30.67;12.55;;;1.60;54.50;;;;;;5054095;28;20021;-71
2020/12/08 11:00:05;;;;;;;27.45;12.38;;;1.60;54.50;;;;;;5054121;28;20051;-74
2020/12/08 11:02:31;;;;;;;29.67;12.30;;;1.50;54.50;;;;;;5053615;28;20423;-71
2020/12/08 11:04:57;;;;;;;27.75;11.40;;;1.50;54.70;;;;;;5054304;28;20029;-71
2020/12/08 11:07:22;;;;;;;29.00;12.23;;;1.50;54.80;;;;;;5053559;28;20654;-69
2020/12/08 11:09:48;;;;;;;25.92;10.77;;;1.50;54.80;;;;;;5053203;28;20412;-71
2020/12/08 11:12:14;;;;;;;22.23;10.38;;;1.60;55.00;;;;;;5052566;28;20360;-70
2020/12/08 11:14:40;;;;;;;29.10;11.18;;;1.50;54.80;;;;;;5053735;28;20020;-71
2020/12/08 11:17:06;;;;;;;26.27;12.10;;;1.50;55.40;;;;;;5053420;28;20021;-71
2020/12/08 11:19:32;;;;;;;27.30;12.60;;;1.40;54.80;;;;;;5053931;28;20116;-71
2020/12/08 11:22:04;;;;;;;20.90;9.98;;;1.40;55.10;;;;;;5052121;28;20032;-71
2020/12/08 11:24:30;;;;;;;27.73;12.40;;;1.30;55.50;;;;;;5052668;28;20025;-73
2020/12/08 11:26:56;;;;;;;25.05;12.07;;;1.30;55.30;;;;;;5053389;28;20360;-71
2020/12/08 11:29:21;;;;;;;31.25;12.15;;;1.40;55.50;;;;;;5052996;28;20066;-72
2020/12/08 11:31:48;;;;;;;27.65;12.02;;;1.40;55.60;;;;;;5053245;28;20061;-69
2020/12/08 11:34:14;;;;;;;34.25;11.60;;;1.40;55.30;;;;;;5052247;28;20021;-71
2020/12/08 11:36:40;;;;;;;26.23;10.20;;;1.40;55.30;;;;;;5052225;28;20031;-71
2020/12/08 11:39:06;;;;;;;25.95;10.65;;;1.30;55.40;;;;;;5053453;28;20378;-70
2020/12/08 11:41:31;;;;;;;24.13;9.98;;;1.30;55.50;;;;;;5053381;28;20060;-72
2020/12/08 11:43:57;;;;;;;30.55;10.35;;;1.30;55.50;;;;;;5053143;28;20021;-70
2020/12/08 11:46:23;;;;;;;26.73;10.40;;;1.20;55.50;;;;;;5053349;28;20029;-70
2020/12/08 11:48:48;;;;;;;20.65;9.75;;;1.20;55.60;;;;;;5053426;28;20017;-71
2020/12/08 11:51:14;;;;;;;29.35;12.05;;;1.20;55.80;;;;;;5053618;28;20452;-69
2020/12/08 11:53:40;;;;;;;26.48;11.02;;;1.20;55.90;;;;;;5053563;28;20352;-70
2020/12/08 11:56:06;;;;;;;25.38;10.65;;;1.20;56.00;;;;;;5052241;28;20044;-72
2020/12/08 11:58:33;;;;;;;47.95;19.70;;;1.20;56.10;;;;;;5053265;28;20025;-71
2020/12/08 12:00:59;;;;;;;27.25;11.95;;;1.10;56.50;;;;;;5053544;28;20035;-71
2020/12/08 12:03:25;;;;;;;28.15;12.20;;;1.00;56.00;;;;;;5053757;28;20032;-71
2020/12/08 12:05:51;;;;;;;30.80;12.88;;;0.90;56.20;;;;;;5052577;28;20053;-69
2020/12/08 12:08:16;;;;;;;28.35;12.80;;;0.80;56.40;;;;;;5053299;28;20100;-71
2020/12/08 12:10:42;;;;;;;26.17;11.68;;;0.70;56.70;;;;;;5052998;28;20548;-70
2020/12/08 12:13:08;;;;;;;30.80;12.73;;;0.70;56.80;;;;;;5057558;28;20032;-70
2020/12/08 12:15:33;;;;;;;23.83;12.15;;;0.70;56.90;;;;;;5057363;28;20441;-72
2020/12/08 12:17:59;;;;;;;22.73;10.48;;;0.60;57.00;;;;;;5057501;28;20345;-71
2020/12/08 12:20:25;;;;;;;26.63;10.80;;;0.60;57.20;;;;;;5057119;28;20032;-71
2020/12/08 12:22:50;;;;;;;32.83;13.52;;;0.50;57.30;;;;;;5056899;28;20057;-71
2020/12/08 12:25:16;;;;;;;34.17;13.98;;;0.40;57.50;;;;;;5057091;28;20361;-69
2020/12/08 12:27:42;;;;;;;38.60;13.73;;;0.40;57.70;;;;;;5055710;28;20033;-70
2020/12/08 12:30:08;;;;;;;29.15;12.80;;;0.30;57.90;;;;;;5057563;28;20119;-71
2020/12/08 12:32:34;;;;;;;30.00;11.07;;;0.30;58.10;;;;;;5056940;28;20029;-74
2020/12/08 12:35:01;;;;;;;25.45;11.43;;;0.30;58.30;;;;;;5056629;28;20028;-71
2020/12/08 12:37:31;;;;;;;29.67;12.02;;;0.30;58.60;;;;;;5055520;28;20032;-72